sensor_id;sensor_type;location;lat;lon;timestamp;P1;durP1;ratioP1;P2;durP2;ratioP2
20065;SDS011;10193;48.884;9.182;2023-05-08T00:01:05;1.98;;;1.88;;
20065;SDS011;10193;48.884;9.182;2023-05-08T00:03:32;2.20;;;2.10;;
20065;SDS011;10193;48.884;9.182;2023-05-08T00:05:58;2.63;;;2.28;;
20065;SDS011;10193;48.884;9.182;2023-05-08T00:08:28;2.03;;;1.92;;
20065;SDS011;10193;48.884;9.182;2023-05-08T00:10:56;2.30;;;2.20;;
20065;SDS011;10193;48.884;9.182;2023-05-08T00:13:23;2.10;;;2.00;;
20065;SDS011;10193;48.884;9.182;2023-05-08T00:15:50;2.17;;;2.08;;
20065;SDS011;10193;48.884;9.182;2023-05-08T00:18:18;2.67;;;2.45;;
20065;SDS011;10193;48.884;9.182;2023-05-08T00:20:45;2.08;;;1.98;;
20065;SDS011;10193;48.884;9.182;2023-05-08T00:23:12;2.03;;;1.92;;
20065;SDS011;10193;48.884;9.182;2023-05-08T00:25:39;2.15;;;2.00;;
20065;SDS011;10193;48.884;9.182;2023-05-08T00:28:05;2.08;;;1.98;;
20065;SDS011;10193;48.884;9.182;2023-05-08T00:30:32;2.30;;;2.20;;
20065;SDS011;10193;48.884;9.182;2023-05-08T00:32:58;2.40;;;2.20;;
20065;SDS011;10193;48.884;9.182;2023-05-08T00:35:26;1.92;;;1.83;;
20065;SDS011;10193;48.884;9.182;2023-05-08T00:37:53;2.00;;;1.90;;
20065;SDS011;10193;48.884;9.182;2023-05-08T00:40:20;2.13;;;2.03;;
20065;SDS011;10193;48.884;9.182;2023-05-08T00:42:46;2.20;;;2.10;;
20065;SDS011;10193;48.884;9.182;2023-05-08T00:45:13;2.47;;;2.10;;
20065;SDS011;10193;48.884;9.182;2023-05-08T00:47:40;2.15;;;2.05;;
20065;SDS011;10193;48.884;9.182;2023-05-08T00:50:07;2.25;;;2.10;;
20065;SDS011;10193;48.884;9.182;2023-05-08T00:52:36;2.35;;;2.20;;
20065;SDS011;10193;48.884;9.182;2023-05-08T00:55:04;2.40;;;2.30;;
20065;SDS011;10193;48.884;9.182;2023-05-08T00:57:32;2.22;;;2.10;;
20065;SDS011;10193;48.884;9.182;2023-05-08T01:00:00;2.55;;;2.20;;
20065;SDS011;10193;48.884;9.182;2023-05-08T01:02:29;2.10;;;2.00;;
20065;SDS011;10193;48.884;9.182;2023-05-08T01:04:56;2.05;;;1.95;;
20065;SDS011;10193;48.884;9.182;2023-05-08T01:07:23;2.22;;;2.03;;
20065;SDS011;10193;48.884;9.182;2023-05-08T01:09:51;3.42;;;2.22;;
20065;SDS011;10193;48.884;9.182;2023-05-08T01:12:19;1.95;;;1.85;;
20065;SDS011;10193;48.884;9.182;2023-05-08T01:14:55;2.20;;;2.10;;
20065;SDS011;10193;48.884;9.182;2023-05-08T01:17:32;2.10;;;2.00;;
20065;SDS011;10193;48.884;9.182;2023-05-08T01:20:14;2.97;;;2.50;;
20065;SDS011;10193;48.884;9.182;2023-05-08T01:22:54;2.50;;;2.40;;
20065;SDS011;10193;48.884;9.182;2023-05-08T01:25:41;2.10;;;2.00;;
20065;SDS011;10193;48.884;9.182;2023-05-08T01:28:35;2.40;;;2.20;;
20065;SDS011;10193;48.884;9.182;2023-05-08T01:31:17;2.30;;;2.10;;
20065;SDS011;10193;48.884;9.182;2023-05-08T01:33:52;2.55;;;2.35;;
20065;SDS011;10193;48.884;9.182;2023-05-08T01:36:28;2.40;;;2.20;;
20065;SDS011;10193;48.884;9.182;2023-05-08T01:39:03;2.60;;;2.40;;
20065;SDS011;10193;48.884;9.182;2023-05-08T01:41:38;2.58;;;2.45;;
20065;SDS011;10193;48.884;9.182;2023-05-08T01:44:10;2.45;;;2.35;;
20065;SDS011;10193;48.884;9.182;2023-05-08T01:46:40;2.60;;;2.40;;
20065;SDS011;10193;48.884;9.182;2023-05-08T01:49:11;2.42;;;2.22;;
20065;SDS011;10193;48.884;9.182;2023-05-08T01:51:43;2.60;;;2.50;;
20065;SDS011;10193;48.884;9.182;2023-05-08T01:54:14;2.55;;;2.45;;
20065;SDS011;10193;48.884;9.182;2023-05-08T01:56:44;2.53;;;2.42;;
20065;SDS011;10193;48.884;9.182;2023-05-08T01:59:14;2.53;;;2.30;;
20065;SDS011;10193;48.884;9.182;2023-05-08T02:01:45;2.70;;;2.58;;
20065;SDS011;10193;48.884;9.182;2023-05-08T02:04:15;2.75;;;2.65;;
20065;SDS011;10193;48.884;9.182;2023-05-08T02:06:43;2.80;;;2.60;;
20065;SDS011;10193;48.884;9.182;2023-05-08T02:09:11;3.40;;;3.10;;
20065;SDS011;10193;48.884;9.182;2023-05-08T02:11:38;2.90;;;2.72;;
20065;SDS011;10193;48.884;9.182;2023-05-08T02:14:07;3.60;;;3.40;;
20065;SDS011;10193;48.884;9.182;2023-05-08T02:16:37;4.03;;;3.72;;
20065;SDS011;10193;48.884;9.182;2023-05-08T02:19:06;4.20;;;3.80;;
20065;SDS011;10193;48.884;9.182;2023-05-08T02:21:36;3.97;;;3.70;;
20065;SDS011;10193;48.884;9.182;2023-05-08T02:24:05;4.25;;;3.95;;
20065;SDS011;10193;48.884;9.182;2023-05-08T02:26:32;4.00;;;3.70;;
20065;SDS011;10193;48.884;9.182;2023-05-08T02:29:00;4.10;;;3.80;;
20065;SDS011;10193;48.884;9.182;2023-05-08T02:31:28;4.00;;;3.70;;
20065;SDS011;10193;48.884;9.182;2023-05-08T02:33:55;4.22;;;3.92;;
20065;SDS011;10193;48.884;9.182;2023-05-08T02:36:23;3.97;;;3.72;;
20065;SDS011;10193;48.884;9.182;2023-05-08T02:38:53;4.20;;;3.80;;
20065;SDS011;10193;48.884;9.182;2023-05-08T02:41:23;3.85;;;3.55;;
20065;SDS011;10193;48.884;9.182;2023-05-08T02:43:54;3.80;;;3.58;;
20065;SDS011;10193;48.884;9.182;2023-05-08T02:46:23;3.80;;;3.60;;
20065;SDS011;10193;48.884;9.182;2023-05-08T02:48:55;3.55;;;3.28;;
20065;SDS011;10193;48.884;9.182;2023-05-08T02:51:26;3.50;;;3.25;;
20065;SDS011;10193;48.884;9.182;2023-05-08T02:54:03;3.65;;;3.45;;
20065;SDS011;10193;48.884;9.182;2023-05-08T02:56:35;3.38;;;3.17;;
20065;SDS011;10193;48.884;9.182;2023-05-08T02:59:09;3.60;;;3.40;;
20065;SDS011;10193;48.884;9.182;2023-05-08T03:01:44;3.75;;;3.40;;
20065;SDS011;10193;48.884;9.182;2023-05-08T03:04:17;4.72;;;4.32;;
20065;SDS011;10193;48.884;9.182;2023-05-08T03:06:49;3.95;;;3.65;;
20065;SDS011;10193;48.884;9.182;2023-05-08T03:09:22;3.70;;;3.40;;
20065;SDS011;10193;48.884;9.182;2023-05-08T03:11:51;3.50;;;3.30;;
20065;SDS011;10193;48.884;9.182;2023-05-08T03:14:24;3.47;;;3.17;;
20065;SDS011;10193;48.884;9.182;2023-05-08T03:16:53;3.60;;;3.40;;
20065;SDS011;10193;48.884;9.182;2023-05-08T03:19:23;3.53;;;3.22;;
20065;SDS011;10193;48.884;9.182;2023-05-08T03:21:53;3.92;;;3.50;;
20065;SDS011;10193;48.884;9.182;2023-05-08T03:24:24;3.95;;;3.75;;
20065;SDS011;10193;48.884;9.182;2023-05-08T03:26:53;4.05;;;3.78;;
20065;SDS011;10193;48.884;9.182;2023-05-08T03:29:21;4.65;;;4.25;;
20065;SDS011;10193;48.884;9.182;2023-05-08T03:31:49;4.38;;;4.07;;
20065;SDS011;10193;48.884;9.182;2023-05-08T03:34:17;4.57;;;4.20;;
20065;SDS011;10193;48.884;9.182;2023-05-08T03:36:45;4.38;;;4.07;;
20065;SDS011;10193;48.884;9.182;2023-05-08T03:39:12;5.07;;;4.68;;
20065;SDS011;10193;48.884;9.182;2023-05-08T03:41:40;4.82;;;4.53;;
20065;SDS011;10193;48.884;9.182;2023-05-08T03:44:07;4.78;;;4.47;;
20065;SDS011;10193;48.884;9.182;2023-05-08T03:46:35;5.35;;;4.95;;
20065;SDS011;10193;48.884;9.182;2023-05-08T03:49:03;5.10;;;4.70;;
20065;SDS011;10193;48.884;9.182;2023-05-08T03:51:31;5.10;;;4.70;;
20065;SDS011;10193;48.884;9.182;2023-05-08T03:53:57;4.82;;;4.43;;
20065;SDS011;10193;48.884;9.182;2023-05-08T03:56:24;4.97;;;4.57;;
20065;SDS011;10193;48.884;9.182;2023-05-08T03:58:55;4.72;;;4.40;;
20065;SDS011;10193;48.884;9.182;2023-05-08T04:01:30;4.60;;;4.30;;
20065;SDS011;10193;48.884;9.182;2023-05-08T04:04:05;4.57;;;4.18;;
20065;SDS011;10193;48.884;9.182;2023-05-08T04:06:36;4.47;;;4.07;;
20065;SDS011;10193;48.884;9.182;2023-05-08T04:09:12;4.28;;;3.92;;
20065;SDS011;10193;48.884;9.182;2023-05-08T04:11:44;4.05;;;3.80;;
20065;SDS011;10193;48.884;9.182;2023-05-08T04:14:18;4.32;;;4.03;;
20065;SDS011;10193;48.884;9.182;2023-05-08T04:16:50;4.20;;;3.90;;
20065;SDS011;10193;48.884;9.182;2023-05-08T04:19:19;3.95;;;3.70;;
20065;SDS011;10193;48.884;9.182;2023-05-08T04:21:50;3.97;;;3.67;;
20065;SDS011;10193;48.884;9.182;2023-05-08T04:24:20;3.78;;;3.58;;
20065;SDS011;10193;48.884;9.182;2023-05-08T04:26:48;4.10;;;3.80;;
20065;SDS011;10193;48.884;9.182;2023-05-08T04:29:15;3.72;;;3.53;;
20065;SDS011;10193;48.884;9.182;2023-05-08T04:31:44;3.60;;;3.40;;
20065;SDS011;10193;48.884;9.182;2023-05-08T04:34:11;3.97;;;3.67;;
20065;SDS011;10193;48.884;9.182;2023-05-08T04:36:38;3.78;;;3.47;;
20065;SDS011;10193;48.884;9.182;2023-05-08T04:39:05;3.95;;;3.65;;
20065;SDS011;10193;48.884;9.182;2023-05-08T04:41:32;3.85;;;3.55;;
20065;SDS011;10193;48.884;9.182;2023-05-08T04:43:59;3.90;;;3.60;;
20065;SDS011;10193;48.884;9.182;2023-05-08T04:46:26;3.65;;;3.35;;
20065;SDS011;10193;48.884;9.182;2023-05-08T04:48:54;3.70;;;3.40;;
20065;SDS011;10193;48.884;9.182;2023-05-08T04:51:20;3.78;;;3.58;;
20065;SDS011;10193;48.884;9.182;2023-05-08T04:53:47;3.50;;;3.30;;
20065;SDS011;10193;48.884;9.182;2023-05-08T04:56:14;3.63;;;3.42;;
20065;SDS011;10193;48.884;9.182;2023-05-08T04:58:41;3.35;;;3.15;;
20065;SDS011;10193;48.884;9.182;2023-05-08T05:01:07;3.40;;;3.15;;
20065;SDS011;10193;48.884;9.182;2023-05-08T05:03:34;3.10;;;2.90;;
20065;SDS011;10193;48.884;9.182;2023-05-08T05:06:03;3.20;;;3.00;;
20065;SDS011;10193;48.884;9.182;2023-05-08T05:08:29;3.03;;;2.83;;
20065;SDS011;10193;48.884;9.182;2023-05-08T05:10:56;3.30;;;3.10;;
20065;SDS011;10193;48.884;9.182;2023-05-08T05:13:23;2.90;;;2.70;;
20065;SDS011;10193;48.884;9.182;2023-05-08T05:15:50;3.22;;;3.03;;
20065;SDS011;10193;48.884;9.182;2023-05-08T05:18:18;3.08;;;2.88;;
20065;SDS011;10193;48.884;9.182;2023-05-08T05:20:45;5.10;;;4.65;;
20065;SDS011;10193;48.884;9.182;2023-05-08T05:23:13;4.80;;;4.50;;
20065;SDS011;10193;48.884;9.182;2023-05-08T05:25:39;4.38;;;4.07;;
20065;SDS011;10193;48.884;9.182;2023-05-08T05:28:06;3.58;;;3.38;;
20065;SDS011;10193;48.884;9.182;2023-05-08T05:30:33;3.60;;;3.30;;
20065;SDS011;10193;48.884;9.182;2023-05-08T05:32:59;3.78;;;3.47;;
20065;SDS011;10193;48.884;9.182;2023-05-08T05:35:26;3.70;;;3.40;;
20065;SDS011;10193;48.884;9.182;2023-05-08T05:37:53;3.47;;;3.20;;
20065;SDS011;10193;48.884;9.182;2023-05-08T05:40:21;3.92;;;3.60;;
20065;SDS011;10193;48.884;9.182;2023-05-08T05:42:48;3.70;;;3.40;;
20065;SDS011;10193;48.884;9.182;2023-05-08T05:45:15;3.63;;;3.40;;
20065;SDS011;10193;48.884;9.182;2023-05-08T05:47:45;3.92;;;3.63;;
20065;SDS011;10193;48.884;9.182;2023-05-08T05:50:14;3.40;;;3.20;;
20065;SDS011;10193;48.884;9.182;2023-05-08T05:52:42;3.70;;;3.50;;
20065;SDS011;10193;48.884;9.182;2023-05-08T05:55:08;3.65;;;3.40;;
20065;SDS011;10193;48.884;9.182;2023-05-08T05:57:36;4.15;;;3.83;;
20065;SDS011;10193;48.884;9.182;2023-05-08T06:00:04;3.80;;;3.55;;
20065;SDS011;10193;48.884;9.182;2023-05-08T06:02:32;3.92;;;3.63;;
20065;SDS011;10193;48.884;9.182;2023-05-08T06:04:58;3.78;;;3.50;;
20065;SDS011;10193;48.884;9.182;2023-05-08T06:07:25;3.50;;;3.30;;
20065;SDS011;10193;48.884;9.182;2023-05-08T06:09:52;4.00;;;3.70;;
20065;SDS011;10193;48.884;9.182;2023-05-08T06:12:18;4.40;;;4.00;;
20065;SDS011;10193;48.884;9.182;2023-05-08T06:14:46;4.82;;;4.53;;
20065;SDS011;10193;48.884;9.182;2023-05-08T06:17:15;4.18;;;3.88;;
20065;SDS011;10193;48.884;9.182;2023-05-08T06:19:42;4.38;;;4.07;;
20065;SDS011;10193;48.884;9.182;2023-05-08T06:22:09;3.60;;;3.40;;
20065;SDS011;10193;48.884;9.182;2023-05-08T06:24:36;3.47;;;3.22;;
20065;SDS011;10193;48.884;9.182;2023-05-08T06:27:03;3.55;;;3.35;;
20065;SDS011;10193;48.884;9.182;2023-05-08T06:29:29;3.85;;;3.55;;
20065;SDS011;10193;48.884;9.182;2023-05-08T06:31:57;3.60;;;3.40;;
20065;SDS011;10193;48.884;9.182;2023-05-08T06:34:24;4.88;;;4.38;;
20065;SDS011;10193;48.884;9.182;2023-05-08T06:36:51;9.57;;;8.77;;
20065;SDS011;10193;48.884;9.182;2023-05-08T06:39:17;11.00;;;10.10;;
20065;SDS011;10193;48.884;9.182;2023-05-08T06:41:45;5.57;;;5.18;;
20065;SDS011;10193;48.884;9.182;2023-05-08T06:44:12;4.35;;;4.05;;
20065;SDS011;10193;48.884;9.182;2023-05-08T06:46:39;3.80;;;3.50;;
20065;SDS011;10193;48.884;9.182;2023-05-08T06:49:07;3.60;;;3.40;;
20065;SDS011;10193;48.884;9.182;2023-05-08T06:51:33;3.47;;;3.28;;
20065;SDS011;10193;48.884;9.182;2023-05-08T06:54:02;3.95;;;3.65;;
20065;SDS011;10193;48.884;9.182;2023-05-08T06:56:31;3.70;;;3.40;;
20065;SDS011;10193;48.884;9.182;2023-05-08T06:58:58;4.10;;;3.78;;
20065;SDS011;10193;48.884;9.182;2023-05-08T07:01:25;4.05;;;3.75;;
20065;SDS011;10193;48.884;9.182;2023-05-08T07:03:51;3.85;;;3.55;;
20065;SDS011;10193;48.884;9.182;2023-05-08T07:06:19;4.20;;;3.90;;
20065;SDS011;10193;48.884;9.182;2023-05-08T07:08:46;4.20;;;3.90;;
20065;SDS011;10193;48.884;9.182;2023-05-08T07:11:12;4.15;;;3.85;;
20065;SDS011;10193;48.884;9.182;2023-05-08T07:13:39;4.90;;;4.57;;
20065;SDS011;10193;48.884;9.182;2023-05-08T07:16:07;4.22;;;3.90;;
20065;SDS011;10193;48.884;9.182;2023-05-08T07:18:34;4.35;;;4.05;;
20065;SDS011;10193;48.884;9.182;2023-05-08T07:21:01;4.60;;;4.28;;
20065;SDS011;10193;48.884;9.182;2023-05-08T07:23:29;5.63;;;5.13;;
20065;SDS011;10193;48.884;9.182;2023-05-08T07:25:56;5.55;;;5.15;;
20065;SDS011;10193;48.884;9.182;2023-05-08T07:28:23;5.30;;;4.90;;
20065;SDS011;10193;48.884;9.182;2023-05-08T07:30:50;4.70;;;4.40;;
20065;SDS011;10193;48.884;9.182;2023-05-08T07:33:17;4.80;;;4.43;;
20065;SDS011;10193;48.884;9.182;2023-05-08T07:35:44;4.70;;;4.30;;
20065;SDS011;10193;48.884;9.182;2023-05-08T07:38:11;4.00;;;3.55;;
20065;SDS011;10193;48.884;9.182;2023-05-08T07:40:39;3.80;;;3.50;;
20065;SDS011;10193;48.884;9.182;2023-05-08T07:43:05;4.20;;;3.90;;
20065;SDS011;10193;48.884;9.182;2023-05-08T07:45:32;4.22;;;3.92;;
20065;SDS011;10193;48.884;9.182;2023-05-08T07:48:00;3.80;;;3.60;;
20065;SDS011;10193;48.884;9.182;2023-05-08T07:50:27;4.30;;;4.00;;
20065;SDS011;10193;48.884;9.182;2023-05-08T07:52:54;4.20;;;3.90;;
20065;SDS011;10193;48.884;9.182;2023-05-08T07:55:20;4.00;;;3.70;;
20065;SDS011;10193;48.884;9.182;2023-05-08T07:57:48;4.05;;;3.75;;
20065;SDS011;10193;48.884;9.182;2023-05-08T08:00:15;3.92;;;3.63;;
20065;SDS011;10193;48.884;9.182;2023-05-08T08:02:43;3.83;;;3.50;;
20065;SDS011;10193;48.884;9.182;2023-05-08T08:05:10;3.75;;;3.45;;
20065;SDS011;10193;48.884;9.182;2023-05-08T08:07:37;3.55;;;3.30;;
20065;SDS011;10193;48.884;9.182;2023-05-08T08:10:04;3.60;;;3.30;;
20065;SDS011;10193;48.884;9.182;2023-05-08T08:12:31;3.55;;;3.35;;
20065;SDS011;10193;48.884;9.182;2023-05-08T08:14:59;3.58;;;3.28;;
20065;SDS011;10193;48.884;9.182;2023-05-08T08:17:26;3.90;;;3.60;;
20065;SDS011;10193;48.884;9.182;2023-05-08T08:19:53;3.90;;;3.60;;
20065;SDS011;10193;48.884;9.182;2023-05-08T08:22:19;3.90;;;3.60;;
20065;SDS011;10193;48.884;9.182;2023-05-08T08:24:46;3.40;;;3.20;;
20065;SDS011;10193;48.884;9.182;2023-05-08T08:27:13;3.70;;;3.40;;
20065;SDS011;10193;48.884;9.182;2023-05-08T08:29:40;3.80;;;3.50;;
20065;SDS011;10193;48.884;9.182;2023-05-08T08:32:08;3.55;;;3.30;;
20065;SDS011;10193;48.884;9.182;2023-05-08T08:34:34;3.90;;;3.60;;
20065;SDS011;10193;48.884;9.182;2023-05-08T08:37:01;3.33;;;3.13;;
20065;SDS011;10193;48.884;9.182;2023-05-08T08:39:31;3.40;;;3.20;;
20065;SDS011;10193;48.884;9.182;2023-05-08T08:41:58;3.20;;;3.00;;
20065;SDS011;10193;48.884;9.182;2023-05-08T08:44:24;3.38;;;3.17;;
20065;SDS011;10193;48.884;9.182;2023-05-08T08:46:52;3.00;;;2.80;;
20065;SDS011;10193;48.884;9.182;2023-05-08T08:49:22;3.58;;;3.30;;
20065;SDS011;10193;48.884;9.182;2023-05-08T08:51:54;3.25;;;3.05;;
20065;SDS011;10193;48.884;9.182;2023-05-08T08:54:23;3.17;;;2.97;;
20065;SDS011;10193;48.884;9.182;2023-05-08T08:56:54;3.58;;;3.38;;
20065;SDS011;10193;48.884;9.182;2023-05-08T08:59:25;3.70;;;3.40;;
20065;SDS011;10193;48.884;9.182;2023-05-08T09:01:54;3.58;;;3.28;;
20065;SDS011;10193;48.884;9.182;2023-05-08T09:04:25;3.75;;;3.35;;
20065;SDS011;10193;48.884;9.182;2023-05-08T09:06:53;3.55;;;3.35;;
20065;SDS011;10193;48.884;9.182;2023-05-08T09:09:22;3.70;;;3.47;;
20065;SDS011;10193;48.884;9.182;2023-05-08T09:11:50;3.38;;;3.17;;
20065;SDS011;10193;48.884;9.182;2023-05-08T09:14:17;3.85;;;3.55;;
20065;SDS011;10193;48.884;9.182;2023-05-08T09:16:44;3.65;;;3.45;;
20065;SDS011;10193;48.884;9.182;2023-05-08T09:19:12;3.88;;;3.58;;
20065;SDS011;10193;48.884;9.182;2023-05-08T09:21:41;4.40;;;4.00;;
20065;SDS011;10193;48.884;9.182;2023-05-08T09:24:08;3.97;;;3.67;;
20065;SDS011;10193;48.884;9.182;2023-05-08T09:26:35;4.55;;;4.00;;
20065;SDS011;10193;48.884;9.182;2023-05-08T09:29:12;4.40;;;3.92;;
20065;SDS011;10193;48.884;9.182;2023-05-08T09:31:41;4.95;;;4.32;;
20065;SDS011;10193;48.884;9.182;2023-05-08T09:34:09;4.45;;;4.05;;
20065;SDS011;10193;48.884;9.182;2023-05-08T09:36:36;4.10;;;3.80;;
20065;SDS011;10193;48.884;9.182;2023-05-08T09:39:09;3.97;;;3.67;;
20065;SDS011;10193;48.884;9.182;2023-05-08T09:41:37;4.50;;;4.10;;
20065;SDS011;10193;48.884;9.182;2023-05-08T09:44:05;4.55;;;4.10;;
20065;SDS011;10193;48.884;9.182;2023-05-08T09:46:32;4.45;;;4.05;;
20065;SDS011;10193;48.884;9.182;2023-05-08T09:48:59;4.00;;;3.70;;
20065;SDS011;10193;48.884;9.182;2023-05-08T09:51:28;4.50;;;4.20;;
20065;SDS011;10193;48.884;9.182;2023-05-08T09:53:56;4.38;;;3.97;;
20065;SDS011;10193;48.884;9.182;2023-05-08T09:56:32;5.03;;;3.95;;
20065;SDS011;10193;48.884;9.182;2023-05-08T09:59:00;4.32;;;3.92;;
20065;SDS011;10193;48.884;9.182;2023-05-08T10:01:29;4.13;;;3.83;;
20065;SDS011;10193;48.884;9.182;2023-05-08T10:03:56;3.95;;;3.70;;
20065;SDS011;10193;48.884;9.182;2023-05-08T10:06:23;4.40;;;4.00;;
20065;SDS011;10193;48.884;9.182;2023-05-08T10:09:11;4.38;;;4.07;;
20065;SDS011;10193;48.884;9.182;2023-05-08T10:11:40;4.15;;;3.85;;
20065;SDS011;10193;48.884;9.182;2023-05-08T10:14:15;5.28;;;4.07;;
20065;SDS011;10193;48.884;9.182;2023-05-08T10:16:43;4.20;;;3.90;;
20065;SDS011;10193;48.884;9.182;2023-05-08T10:19:13;4.20;;;3.90;;
20065;SDS011;10193;48.884;9.182;2023-05-08T10:21:41;4.30;;;4.00;;
20065;SDS011;10193;48.884;9.182;2023-05-08T10:24:12;4.43;;;4.13;;
20065;SDS011;10193;48.884;9.182;2023-05-08T10:26:43;4.47;;;4.18;;
20065;SDS011;10193;48.884;9.182;2023-05-08T10:29:19;4.60;;;4.20;;
20065;SDS011;10193;48.884;9.182;2023-05-08T10:31:50;4.43;;;4.13;;
20065;SDS011;10193;48.884;9.182;2023-05-08T10:34:21;4.03;;;3.72;;
20065;SDS011;10193;48.884;9.182;2023-05-08T10:36:48;4.30;;;4.00;;
20065;SDS011;10193;48.884;9.182;2023-05-08T10:39:17;4.63;;;4.22;;
20065;SDS011;10193;48.884;9.182;2023-05-08T10:41:46;4.60;;;4.25;;
20065;SDS011;10193;48.884;9.182;2023-05-08T10:44:14;4.68;;;4.28;;
20065;SDS011;10193;48.884;9.182;2023-05-08T10:46:43;4.30;;;4.00;;
20065;SDS011;10193;48.884;9.182;2023-05-08T10:49:18;4.45;;;4.05;;
20065;SDS011;10193;48.884;9.182;2023-05-08T10:51:52;4.60;;;4.20;;
20065;SDS011;10193;48.884;9.182;2023-05-08T10:54:29;4.35;;;4.05;;
20065;SDS011;10193;48.884;9.182;2023-05-08T10:57:09;4.22;;;3.83;;
20065;SDS011;10193;48.884;9.182;2023-05-08T10:59:36;5.03;;;4.60;;
20065;SDS011;10193;48.884;9.182;2023-05-08T11:02:04;5.05;;;4.55;;
20065;SDS011;10193;48.884;9.182;2023-05-08T11:04:31;4.72;;;4.38;;
20065;SDS011;10193;48.884;9.182;2023-05-08T11:06:59;5.28;;;4.82;;
20065;SDS011;10193;48.884;9.182;2023-05-08T11:09:26;5.50;;;5.00;;
20065;SDS011;10193;48.884;9.182;2023-05-08T11:12:05;4.50;;;4.20;;
20065;SDS011;10193;48.884;9.182;2023-05-08T11:14:35;4.70;;;4.20;;
20065;SDS011;10193;48.884;9.182;2023-05-08T11:17:07;4.55;;;4.15;;
20065;SDS011;10193;48.884;9.182;2023-05-08T11:19:35;4.30;;;4.00;;
20065;SDS011;10193;48.884;9.182;2023-05-08T11:22:15;4.38;;;4.03;;
20065;SDS011;10193;48.884;9.182;2023-05-08T11:27:39;4.22;;;3.92;;
20065;SDS011;10193;48.884;9.182;2023-05-08T11:30:23;4.18;;;3.88;;
20065;SDS011;10193;48.884;9.182;2023-05-08T11:33:11;4.22;;;3.83;;
20065;SDS011;10193;48.884;9.182;2023-05-08T11:35:43;3.80;;;3.60;;
20065;SDS011;10193;48.884;9.182;2023-05-08T11:38:16;4.03;;;3.72;;
20065;SDS011;10193;48.884;9.182;2023-05-08T11:40:44;4.55;;;4.15;;
20065;SDS011;10193;48.884;9.182;2023-05-08T11:43:22;4.38;;;4.07;;
20065;SDS011;10193;48.884;9.182;2023-05-08T11:45:52;4.38;;;4.07;;
20065;SDS011;10193;48.884;9.182;2023-05-08T11:48:19;4.38;;;4.07;;
20065;SDS011;10193;48.884;9.182;2023-05-08T11:50:46;4.55;;;4.15;;
20065;SDS011;10193;48.884;9.182;2023-05-08T11:53:14;4.30;;;4.00;;
20065;SDS011;10193;48.884;9.182;2023-05-08T11:55:41;4.32;;;4.03;;
20065;SDS011;10193;48.884;9.182;2023-05-08T11:58:11;4.85;;;4.45;;
20065;SDS011;10193;48.884;9.182;2023-05-08T12:00:39;4.63;;;4.30;;
20065;SDS011;10193;48.884;9.182;2023-05-08T12:03:10;5.18;;;4.50;;
20065;SDS011;10193;48.884;9.182;2023-05-08T12:05:37;4.72;;;4.40;;
20065;SDS011;10193;48.884;9.182;2023-05-08T12:08:05;5.25;;;4.75;;
20065;SDS011;10193;48.884;9.182;2023-05-08T12:10:31;5.38;;;4.88;;
20065;SDS011;10193;48.884;9.182;2023-05-08T12:13:13;5.18;;;4.78;;
20065;SDS011;10193;48.884;9.182;2023-05-08T12:15:40;5.75;;;5.22;;
20065;SDS011;10193;48.884;9.182;2023-05-08T12:18:07;5.82;;;5.22;;
20065;SDS011;10193;48.884;9.182;2023-05-08T12:20:35;6.55;;;5.38;;
20065;SDS011;10193;48.884;9.182;2023-05-08T12:23:02;6.03;;;5.45;;
20065;SDS011;10193;48.884;9.182;2023-05-08T12:25:29;6.57;;;6.05;;
20065;SDS011;10193;48.884;9.182;2023-05-08T12:27:55;6.00;;;5.50;;
20065;SDS011;10193;48.884;9.182;2023-05-08T12:30:23;6.68;;;5.53;;
20065;SDS011;10193;48.884;9.182;2023-05-08T12:32:50;5.88;;;5.38;;
20065;SDS011;10193;48.884;9.182;2023-05-08T12:35:19;6.18;;;5.63;;
20065;SDS011;10193;48.884;9.182;2023-05-08T12:37:46;6.13;;;5.63;;
20065;SDS011;10193;48.884;9.182;2023-05-08T12:40:22;6.05;;;5.55;;
20065;SDS011;10193;48.884;9.182;2023-05-08T12:42:51;5.97;;;5.47;;
20065;SDS011;10193;48.884;9.182;2023-05-08T12:45:18;6.78;;;6.22;;
20065;SDS011;10193;48.884;9.182;2023-05-08T12:47:45;6.50;;;5.90;;
20065;SDS011;10193;48.884;9.182;2023-05-08T12:50:13;6.38;;;5.78;;
20065;SDS011;10193;48.884;9.182;2023-05-08T12:52:42;6.95;;;6.35;;
20065;SDS011;10193;48.884;9.182;2023-05-08T12:55:22;7.10;;;6.40;;
20065;SDS011;10193;48.884;9.182;2023-05-08T12:57:57;6.53;;;6.03;;
20065;SDS011;10193;48.884;9.182;2023-05-08T13:00:24;8.30;;;6.47;;
20065;SDS011;10193;48.884;9.182;2023-05-08T13:02:58;7.40;;;6.70;;
20065;SDS011;10193;48.884;9.182;2023-05-08T13:05:25;7.35;;;6.70;;
20065;SDS011;10193;48.884;9.182;2023-05-08T13:07:53;7.70;;;7.00;;
20065;SDS011;10193;48.884;9.182;2023-05-08T13:10:24;6.88;;;6.38;;
20065;SDS011;10193;48.884;9.182;2023-05-08T13:12:51;6.68;;;6.18;;
20065;SDS011;10193;48.884;9.182;2023-05-08T13:15:17;7.00;;;6.38;;
20065;SDS011;10193;48.884;9.182;2023-05-08T13:17:45;7.50;;;6.90;;
20065;SDS011;10193;48.884;9.182;2023-05-08T13:20:11;7.40;;;6.80;;
20065;SDS011;10193;48.884;9.182;2023-05-08T13:22:38;8.25;;;6.80;;
20065;SDS011;10193;48.884;9.182;2023-05-08T13:25:07;7.38;;;6.78;;
20065;SDS011;10193;48.884;9.182;2023-05-08T13:27:34;7.80;;;7.00;;
20065;SDS011;10193;48.884;9.182;2023-05-08T13:30:01;7.57;;;6.97;;
20065;SDS011;10193;48.884;9.182;2023-05-08T13:32:27;7.22;;;6.63;;
20065;SDS011;10193;48.884;9.182;2023-05-08T13:34:54;7.30;;;6.57;;
20065;SDS011;10193;48.884;9.182;2023-05-08T13:37:21;7.00;;;6.40;;
20065;SDS011;10193;48.884;9.182;2023-05-08T13:39:47;7.13;;;6.53;;
20065;SDS011;10193;48.884;9.182;2023-05-08T13:42:15;7.35;;;6.75;;
20065;SDS011;10193;48.884;9.182;2023-05-08T13:44:42;7.43;;;6.82;;
20065;SDS011;10193;48.884;9.182;2023-05-08T13:47:09;8.43;;;7.65;;
20065;SDS011;10193;48.884;9.182;2023-05-08T13:49:35;7.90;;;7.30;;
20065;SDS011;10193;48.884;9.182;2023-05-08T13:52:02;7.85;;;7.15;;
20065;SDS011;10193;48.884;9.182;2023-05-08T13:54:29;7.63;;;6.93;;
20065;SDS011;10193;48.884;9.182;2023-05-08T13:56:56;7.90;;;7.30;;
20065;SDS011;10193;48.884;9.182;2023-05-08T13:59:24;8.45;;;7.65;;
20065;SDS011;10193;48.884;9.182;2023-05-08T14:01:50;7.95;;;7.32;;
20065;SDS011;10193;48.884;9.182;2023-05-08T14:04:17;8.07;;;7.47;;
20065;SDS011;10193;48.884;9.182;2023-05-08T14:06:44;8.23;;;7.53;;
20065;SDS011;10193;48.884;9.182;2023-05-08T14:09:11;7.68;;;6.97;;
20065;SDS011;10193;48.884;9.182;2023-05-08T14:11:37;7.97;;;7.28;;
20065;SDS011;10193;48.884;9.182;2023-05-08T14:14:04;8.00;;;7.32;;
20065;SDS011;10193;48.884;9.182;2023-05-08T14:16:32;7.78;;;7.07;;
20065;SDS011;10193;48.884;9.182;2023-05-08T14:18:58;7.75;;;7.15;;
20065;SDS011;10193;48.884;9.182;2023-05-08T14:21:25;8.65;;;7.95;;
20065;SDS011;10193;48.884;9.182;2023-05-08T14:23:52;8.98;;;8.20;;
20065;SDS011;10193;48.884;9.182;2023-05-08T14:26:19;9.02;;;8.20;;
20065;SDS011;10193;48.884;9.182;2023-05-08T14:28:46;8.82;;;8.02;;
20065;SDS011;10193;48.884;9.182;2023-05-08T14:31:13;7.97;;;7.28;;
20065;SDS011;10193;48.884;9.182;2023-05-08T14:33:41;7.65;;;7.05;;
20065;SDS011;10193;48.884;9.182;2023-05-08T14:36:08;8.82;;;8.05;;
20065;SDS011;10193;48.884;9.182;2023-05-08T14:38:34;9.23;;;8.43;;
20065;SDS011;10193;48.884;9.182;2023-05-08T14:41:01;8.05;;;7.35;;
20065;SDS011;10193;48.884;9.182;2023-05-08T14:43:28;8.07;;;7.47;;
20065;SDS011;10193;48.884;9.182;2023-05-08T14:45:54;9.07;;;8.32;;
20065;SDS011;10193;48.884;9.182;2023-05-08T14:48:21;8.95;;;8.13;;
20065;SDS011;10193;48.884;9.182;2023-05-08T14:50:49;8.30;;;7.60;;
20065;SDS011;10193;48.884;9.182;2023-05-08T14:53:16;8.82;;;8.13;;
20065;SDS011;10193;48.884;9.182;2023-05-08T14:55:42;8.32;;;7.53;;
20065;SDS011;10193;48.884;9.182;2023-05-08T14:58:09;7.95;;;7.25;;
20065;SDS011;10193;48.884;9.182;2023-05-08T15:00:36;8.18;;;7.38;;